sensor_id;sensor_type;location;lat;lon;timestamp;pressure;altitude;pressure_sealevel;temperature;humidity
57894;BME280;43710;47.460;19.034;2022-10-15T04:20:18;100698.22;;;10.86;82.36
57894;BME280;43710;47.460;19.034;2022-10-15T04:23:22;100698.22;;;10.86;82.36
57894;BME280;43710;47.460;19.034;2022-10-15T04:26:29;100701.00;;;10.25;84.41
57894;BME280;43710;47.460;19.034;2022-10-15T04:29:32;100711.22;;;10.43;83.89
57894;BME280;43710;47.460;19.034;2022-10-15T04:32:40;100710.12;;;10.39;83.73
57894;BME280;43710;47.460;19.034;2022-10-15T04:35:43;100713.62;;;10.50;83.36
57894;BME280;43710;47.460;19.034;2022-10-15T04:38:45;100710.91;;;10.55;82.63
57894;BME280;43710;47.460;19.034;2022-10-15T04:41:48;100725.13;;;10.45;82.91
57894;BME280;43710;47.460;19.034;2022-10-15T04:44:50;100729.41;;;10.51;82.52
57894;BME280;43710;47.460;19.034;2022-10-15T04:47:53;100723.50;;;10.54;82.42
57894;BME280;43710;47.460;19.034;2022-10-15T04:51:05;100720.28;;;10.52;82.05
57894;BME280;43710;47.460;19.034;2022-10-15T04:54:10;100717.09;;;10.45;82.37
57894;BME280;43710;47.460;19.034;2022-10-15T04:57:20;100720.81;;;10.49;82.22
57894;BME280;43710;47.460;19.034;2022-10-15T05:00:23;100724.56;;;10.58;82.17
57894;BME280;43710;47.460;19.034;2022-10-15T05:03:29;100713.31;;;10.51;82.21
57894;BME280;43710;47.460;19.034;2022-10-15T05:06:32;100715.22;;;10.51;82.43
57894;BME280;43710;47.460;19.034;2022-10-15T05:09:36;100717.31;;;10.59;82.19
57894;BME280;43710;47.460;19.034;2022-10-15T05:12:43;100720.53;;;10.56;82.25
57894;BME280;43710;47.460;19.034;2022-10-15T05:15:45;100724.34;;;10.50;82.69
57894;BME280;43710;47.460;19.034;2022-10-15T05:18:49;100729.97;;;10.53;82.91
57894;BME280;43710;47.460;19.034;2022-10-15T05:21:51;100728.63;;;10.51;83.21
57894;BME280;43710;47.460;19.034;2022-10-15T05:24:55;100732.34;;;10.55;83.18
57894;BME280;43710;47.460;19.034;2022-10-15T05:27:58;100731.81;;;10.63;83.10
57894;BME280;43710;47.460;19.034;2022-10-15T05:34:07;100725.63;;;10.73;83.15
57894;BME280;43710;47.460;19.034;2022-10-15T05:37:10;100723.88;;;11.02;82.06
57894;BME280;43710;47.460;19.034;2022-10-15T05:40:13;100719.41;;;10.93;82.78
57894;BME280;43710;47.460;19.034;2022-10-15T05:43:25;100724.16;;;11.06;82.43
57894;BME280;43710;47.460;19.034;2022-10-15T05:46:27;100717.19;;;11.05;82.95
57894;BME280;43710;47.460;19.034;2022-10-15T05:49:30;100714.50;;;11.05;83.51
57894;BME280;43710;47.460;19.034;2022-10-15T05:52:32;100716.69;;;10.98;84.39
57894;BME280;43710;47.460;19.034;2022-10-15T05:55:35;100727.41;;;10.98;84.30
57894;BME280;43710;47.460;19.034;2022-10-15T05:58:37;100724.72;;;11.03;84.75
57894;BME280;43710;47.460;19.034;2022-10-15T06:01:40;100734.63;;;11.08;85.10
57894;BME280;43710;47.460;19.034;2022-10-15T06:04:42;100726.03;;;11.11;85.07
57894;BME280;43710;47.460;19.034;2022-10-15T06:07:44;100734.91;;;11.06;85.69
57894;BME280;43710;47.460;19.034;2022-10-15T06:10:47;100733.03;;;11.07;86.18
57894;BME280;43710;47.460;19.034;2022-10-15T06:13:49;100742.88;;;11.21;85.60
57894;BME280;43710;47.460;19.034;2022-10-15T06:16:52;100750.88;;;11.32;85.34
57894;BME280;43710;47.460;19.034;2022-10-15T06:19:55;100751.41;;;11.34;85.55
57894;BME280;43710;47.460;19.034;2022-10-15T06:22:58;100758.63;;;11.38;86.43
57894;BME280;43710;47.460;19.034;2022-10-15T06:26:06;100759.94;;;11.46;86.94
57894;BME280;43710;47.460;19.034;2022-10-15T06:29:09;100763.09;;;11.58;87.52
57894;BME280;43710;47.460;19.034;2022-10-15T06:32:11;100768.34;;;11.79;86.33
57894;BME280;43710;47.460;19.034;2022-10-15T06:35:15;100767.00;;;11.86;87.56
57894;BME280;43710;47.460;19.034;2022-10-15T06:38:18;100766.72;;;11.83;87.81
57894;BME280;43710;47.460;19.034;2022-10-15T06:41:21;100771.25;;;11.92;88.34
57894;BME280;43710;47.460;19.034;2022-10-15T06:44:23;100774.38;;;12.05;87.89
57894;BME280;43710;47.460;19.034;2022-10-15T06:47:26;100770.22;;;12.22;85.65
57894;BME280;43710;47.460;19.034;2022-10-15T06:50:28;100779.22;;;12.37;86.46
57894;BME280;43710;47.460;19.034;2022-10-15T06:53:30;100781.06;;;12.41;86.78
57894;BME280;43710;47.460;19.034;2022-10-15T06:56:32;100784.19;;;12.54;85.68
57894;BME280;43710;47.460;19.034;2022-10-15T06:59:37;100782.81;;;12.56;85.25
57894;BME280;43710;47.460;19.034;2022-10-15T07:02:42;100783.28;;;12.63;83.49
57894;BME280;43710;47.460;19.034;2022-10-15T07:05:45;100783.16;;;12.79;81.85
57894;BME280;43710;47.460;19.034;2022-10-15T07:08:47;100785.44;;;12.90;82.54
57894;BME280;43710;47.460;19.034;2022-10-15T07:11:49;100797.28;;;12.89;82.79
57894;BME280;43710;47.460;19.034;2022-10-15T07:14:51;100787.78;;;12.97;81.81
57894;BME280;43710;47.460;19.034;2022-10-15T07:17:55;100793.03;;;13.07;81.10
57894;BME280;43710;47.460;19.034;2022-10-15T07:20:57;100799.94;;;13.19;80.32
57894;BME280;43710;47.460;19.034;2022-10-15T07:24:00;100791.47;;;13.30;79.43
57894;BME280;43710;47.460;19.034;2022-10-15T07:27:02;100790.44;;;13.26;80.00
57894;BME280;43710;47.460;19.034;2022-10-15T07:30:18;100790.44;;;13.26;80.55
57894;BME280;43710;47.460;19.034;2022-10-15T07:33:20;100786.69;;;13.22;81.63
57894;BME280;43710;47.460;19.034;2022-10-15T07:36:25;100783.25;;;13.40;80.02
57894;BME280;43710;47.460;19.034;2022-10-15T07:39:27;100782.75;;;13.57;78.99
57894;BME280;43710;47.460;19.034;2022-10-15T07:42:29;100774.19;;;13.55;79.82
57894;BME280;43710;47.460;19.034;2022-10-15T07:45:32;100782.28;;;13.74;78.71
57894;BME280;43710;47.460;19.034;2022-10-15T07:48:35;100784.69;;;13.76;78.40
57894;BME280;43710;47.460;19.034;2022-10-15T07:51:38;100784.47;;;13.72;79.05
57894;BME280;43710;47.460;19.034;2022-10-15T07:54:40;100785.63;;;13.66;79.18
57894;BME280;43710;47.460;19.034;2022-10-15T07:57:43;100786.00;;;13.78;79.03
57894;BME280;43710;47.460;19.034;2022-10-15T08:00:45;100781.25;;;13.89;78.10
57894;BME280;43710;47.460;19.034;2022-10-15T08:03:48;100786.13;;;13.87;78.04
57894;BME280;43710;47.460;19.034;2022-10-15T08:06:50;100794.94;;;13.74;79.29
57894;BME280;43710;47.460;19.034;2022-10-15T08:09:52;100791.81;;;13.85;80.50
57894;BME280;43710;47.460;19.034;2022-10-15T08:12:54;100786.50;;;13.99;78.66
57894;BME280;43710;47.460;19.034;2022-10-15T08:15:56;100799.16;;;13.99;79.21
57894;BME280;43710;47.460;19.034;2022-10-15T08:19:01;100794.78;;;14.03;79.76
57894;BME280;43710;47.460;19.034;2022-10-15T08:22:04;100799.78;;;14.28;78.07
57894;BME280;43710;47.460;19.034;2022-10-15T08:25:06;100807.09;;;14.28;77.61
57894;BME280;43710;47.460;19.034;2022-10-15T08:28:09;100811.72;;;14.41;77.30
57894;BME280;43710;47.460;19.034;2022-10-15T08:31:11;100798.72;;;14.43;77.70
57894;BME280;43710;47.460;19.034;2022-10-15T08:34:14;100800.47;;;14.53;77.34
57894;BME280;43710;47.460;19.034;2022-10-15T08:37:16;100802.09;;;14.54;77.45
57894;BME280;43710;47.460;19.034;2022-10-15T08:40:20;100802.78;;;14.60;76.56
57894;BME280;43710;47.460;19.034;2022-10-15T08:43:28;100797.31;;;14.65;75.93
57894;BME280;43710;47.460;19.034;2022-10-15T08:46:41;100795.44;;;14.79;74.76
57894;BME280;43710;47.460;19.034;2022-10-15T08:49:49;100797.75;;;14.99;73.49
57894;BME280;43710;47.460;19.034;2022-10-15T08:52:52;100797.53;;;14.82;75.18
57894;BME280;43710;47.460;19.034;2022-10-15T08:55:59;100794.97;;;14.91;74.54
57894;BME280;43710;47.460;19.034;2022-10-15T08:59:22;100797.88;;;14.94;74.51
57894;BME280;43710;47.460;19.034;2022-10-15T09:02:44;100792.97;;;15.10;73.51
57894;BME280;43710;47.460;19.034;2022-10-15T09:06:02;100795.75;;;15.19;74.69
57894;BME280;43710;47.460;19.034;2022-10-15T09:09:24;100793.88;;;15.33;71.23
57894;BME280;43710;47.460;19.034;2022-10-15T09:12:35;100797.75;;;15.41;71.45
57894;BME280;43710;47.460;19.034;2022-10-15T09:16:01;100791.84;;;15.39;72.69
57894;BME280;43710;47.460;19.034;2022-10-15T09:19:16;100802.16;;;15.37;71.48
57894;BME280;43710;47.460;19.034;2022-10-15T09:22:24;100811.66;;;15.34;72.83
57894;BME280;43710;47.460;19.034;2022-10-15T09:25:34;100814.06;;;15.36;72.38
57894;BME280;43710;47.460;19.034;2022-10-15T09:39:04;100807.00;;;15.62;71.12
57894;BME280;43710;47.460;19.034;2022-10-15T09:42:15;100811.62;;;15.62;71.53
57894;BME280;43710;47.460;19.034;2022-10-15T09:45:24;100807.19;;;15.66;72.13
57894;BME280;43710;47.460;19.034;2022-10-15T09:48:27;100808.31;;;15.65;72.39
57894;BME280;43710;47.460;19.034;2022-10-15T09:55:48;100816.09;;;15.94;71.73
57894;BME280;43710;47.460;19.034;2022-10-15T09:59:00;100805.56;;;15.92;71.33
57894;BME280;43710;47.460;19.034;2022-10-15T10:02:21;100807.75;;;16.04;71.49
57894;BME280;43710;47.460;19.034;2022-10-15T10:05:30;100806.37;;;16.15;70.98
57894;BME280;43710;47.460;19.034;2022-10-15T10:08:37;100798.44;;;16.19;71.81
57894;BME280;43710;47.460;19.034;2022-10-15T10:11:54;100798.16;;;16.20;70.22
57894;BME280;43710;47.460;19.034;2022-10-15T10:18:24;100778.47;;;16.29;72.18
57894;BME280;43710;47.460;19.034;2022-10-15T10:21:31;100786.16;;;16.35;70.68
57894;BME280;43710;47.460;19.034;2022-10-15T10:24:34;100788.25;;;16.38;69.44
57894;BME280;43710;47.460;19.034;2022-10-15T10:27:44;100788.84;;;16.35;69.33
57894;BME280;43710;47.460;19.034;2022-10-15T10:34:01;100787.00;;;16.44;68.11
57894;BME280;43710;47.460;19.034;2022-10-15T10:37:04;100781.31;;;16.46;68.42
57894;BME280;43710;47.460;19.034;2022-10-15T10:40:34;100769.84;;;16.49;67.95
57894;BME280;43710;47.460;19.034;2022-10-15T10:43:40;100775.19;;;16.63;68.11
57894;BME280;43710;47.460;19.034;2022-10-15T10:47:09;100765.31;;;16.67;67.75
57894;BME280;43710;47.460;19.034;2022-10-15T10:50:33;100755.16;;;16.73;67.11
57894;BME280;43710;47.460;19.034;2022-10-15T10:53:47;100753.03;;;16.92;63.90
57894;BME280;43710;47.460;19.034;2022-10-15T10:56:50;100748.41;;;16.93;64.22
57894;BME280;43710;47.460;19.034;2022-10-15T10:59:54;100743.19;;;17.05;64.76
57894;BME280;43710;47.460;19.034;2022-10-15T11:02:57;100749.25;;;17.10;63.47
57894;BME280;43710;47.460;19.034;2022-10-15T11:12:43;100736.84;;;17.18;62.13
57894;BME280;43710;47.460;19.034;2022-10-15T11:16:14;100739.56;;;17.27;60.87
57894;BME280;43710;47.460;19.034;2022-10-15T11:19:33;100732.09;;;17.41;59.97
57894;BME280;43710;47.460;19.034;2022-10-15T11:30:29;100721.87;;;17.38;60.50
57894;BME280;43710;47.460;19.034;2022-10-15T11:43:47;100691.44;;;17.41;61.48
57894;BME280;43710;47.460;19.034;2022-10-15T11:47:21;100689.22;;;17.43;61.21
